^^
Saratoga-Weather Station Historical Data
Daily Summary for June 17, 2021 Units:  Both    English   Metric
Daily Weekly Monthly Yearly Custom
  High: Low: Average:
Temperature: 91 °F /  32.8 °C 63 °F /  17.2 °C 77.7 °F /  25.4 °C
Dew Point: 71.4 °F /  21.9 °C 59.4 °F /  15.2 °C 64.6 °F /  18.1 °C
Humidity: 90% 45% 66%
Wind Speed: 8.1mph /  13km/h - 1.1mph /  1.7km/h
Wind Gust: 11mph /  17.7km/h - -
Wind- - SSW
Pressure: 29.9 in /  1010.8 hPa 29.8 in /  1009.1 hPa -
Precipitation: 0 in /  0.0 mm    
Historical Graphs
 
 
Tabular Data for June 17, 2021
Time Temperature Dew Point Pressure Wind Wind Speed Wind Gust Humidity Rainfall Rate (Hourly) solar
00:02 70.2 °F /  21.2 °C 61.2 °F /  16.2 °C 29.8in /  1010.2hPa Calm     73% 0in /  0.0mm 0 W/m2
00:07 70 °F /  21.1 °C 61 °F /  16.1 °C 29.8in /  1010.2hPa Calm     73% 0in /  0.0mm 0 W/m2
00:12 69.6 °F /  20.9 °C 61 °F /  16.1 °C 29.8in /  1010.2hPa Calm     74% 0in /  0.0mm 0 W/m2
00:17 69.4 °F /  20.8 °C 60.8 °F /  16 °C 29.8in /  1010.2hPa Calm     74% 0in /  0.0mm 0 W/m2
00:22 69.3 °F /  20.7 °C 61 °F /  16.1 °C 29.8in /  1010.2hPa Calm     75% 0in /  0.0mm 0 W/m2
00:27 69.1 °F /  20.6 °C 61.2 °F /  16.2 °C 29.8in /  1010.2hPa Calm     76% 0in /  0.0mm 0 W/m2
00:32 68.9 °F /  20.5 °C 61.3 °F /  16.3 °C 29.8in /  1010.2hPa Calm     77% 0in /  0.0mm 0 W/m2
00:37 68.7 °F /  20.4 °C 61.5 °F /  16.4 °C 29.8in /  1010.2hPa Calm     78% 0in /  0.0mm 0 W/m2
00:42 68.5 °F /  20.3 °C 61.3 °F /  16.3 °C 29.8in /  1010.2hPa Calm     78% 0in /  0.0mm 0 W/m2
00:47 68.5 °F /  20.3 °C 61.3 °F /  16.3 °C 29.8in /  1010.2hPa Calm     78% 0in /  0.0mm 0 W/m2
00:52 68.4 °F /  20.2 °C 61.5 °F /  16.4 °C 29.8in /  1009.8hPa Calm     79% 0in /  0.0mm 0 W/m2
00:57 68.2 °F /  20.1 °C 61.3 °F /  16.3 °C 29.8in /  1009.8hPa Calm     79% 0in /  0.0mm 0 W/m2
01:02 68 °F /  20 °C 61.2 °F /  16.2 °C 29.8in /  1009.8hPa Calm     79% 0in /  0.0mm 0 W/m2
01:07 67.6 °F /  19.8 °C 61 °F /  16.1 °C 29.8in /  1009.8hPa Calm     79% 0in /  0.0mm 0 W/m2
01:12 67.6 °F /  19.8 °C 61.2 °F /  16.2 °C 29.8in /  1009.8hPa Calm     80% 0in /  0.0mm 0 W/m2
01:17 67.6 °F /  19.8 °C 61.2 °F /  16.2 °C 29.8in /  1009.8hPa Calm     80% 0in /  0.0mm 0 W/m2
01:22 67.5 °F /  19.7 °C 61.3 °F /  16.3 °C 29.8in /  1009.8hPa Calm     81% 0in /  0.0mm 0 W/m2
01:27 67.3 °F /  19.6 °C 61.2 °F /  16.2 °C 29.8in /  1009.8hPa Calm     81% 0in /  0.0mm 0 W/m2
01:32 67.3 °F /  19.6 °C 61.2 °F /  16.2 °C 29.8in /  1009.8hPa Calm     81% 0in /  0.0mm 0 W/m2
01:37 66.9 °F /  19.4 °C 61 °F /  16.1 °C 29.8in /  1009.5hPa Calm     81% 0in /  0.0mm 0 W/m2
01:42 66.7 °F /  19.3 °C 61 °F /  16.1 °C 29.8in /  1009.5hPa Calm     82% 0in /  0.0mm 0 W/m2
01:47 66.7 °F /  19.3 °C 61 °F /  16.1 °C 29.8in /  1009.5hPa Calm     82% 0in /  0.0mm 0 W/m2
01:53 66.6 °F /  19.2 °C 61.2 °F /  16.2 °C 29.8in /  1009.5hPa Calm     83% 0in /  0.0mm 0 W/m2
01:58 66.6 °F /  19.2 °C 61.2 °F /  16.2 °C 29.8in /  1009.1hPa Calm     83% 0in /  0.0mm 0 W/m2
02:03 66.4 °F /  19.1 °C 61 °F /  16.1 °C 29.8in /  1009.1hPa Calm     83% 0in /  0.0mm 0 W/m2
02:08 66.4 °F /  19.1 °C 61 °F /  16.1 °C 29.8in /  1009.1hPa Calm     83% 0in /  0.0mm 0 W/m2
02:13 66.2 °F /  19 °C 61.2 °F /  16.2 °C 29.8in /  1009.1hPa Calm     84% 0in /  0.0mm 0 W/m2
02:18 66.2 °F /  19 °C 61.2 °F /  16.2 °C 29.8in /  1009.1hPa Calm     84% 0in /  0.0mm 0 W/m2
02:23 66 °F /  18.9 °C 61 °F /  16.1 °C 29.8in /  1009.1hPa Calm   1mph /  1.6km/h 84% 0in /  0.0mm 0 W/m2
02:28 66 °F /  18.9 °C 61 °F /  16.1 °C 29.8in /  1009.1hPa Calm     84% 0in /  0.0mm 0 W/m2
02:33 66 °F /  18.9 °C 61 °F /  16.1 °C 29.8in /  1009.1hPa Calm   1mph /  1.6km/h 84% 0in /  0.0mm 0 W/m2
02:38 65.8 °F /  18.8 °C 60.8 °F /  16 °C 29.8in /  1009.1hPa Calm     84% 0in /  0.0mm 0 W/m2
02:43 65.8 °F /  18.8 °C 60.8 °F /  16 °C 29.8in /  1009.1hPa Calm     84% 0in /  0.0mm 0 W/m2
02:48 65.7 °F /  18.7 °C 60.6 °F /  15.9 °C 29.8in /  1009.1hPa Calm     84% 0in /  0.0mm 0 W/m2
02:53 65.7 °F /  18.7 °C 60.6 °F /  15.9 °C 29.8in /  1009.1hPa Calm     84% 0in /  0.0mm 0 W/m2
02:58 65.7 °F /  18.7 °C 61 °F /  16.1 °C 29.8in /  1009.1hPa Calm     85% 0in /  0.0mm 0 W/m2
03:03 65.7 °F /  18.7 °C 61 °F /  16.1 °C 29.8in /  1009.1hPa Calm     85% 0in /  0.0mm 0 W/m2
03:08 65.5 °F /  18.6 °C 60.8 °F /  16 °C 29.8in /  1009.1hPa Calm     85% 0in /  0.0mm 0 W/m2
03:13 65.5 °F /  18.6 °C 61.2 °F /  16.2 °C 29.8in /  1009.1hPa Calm     86% 0in /  0.0mm 0 W/m2
03:18 65.5 °F /  18.6 °C 61.2 °F /  16.2 °C 29.8in /  1009.1hPa Calm     86% 0in /  0.0mm 0 W/m2
03:23 65.3 °F /  18.5 °C 60.6 °F /  15.9 °C 29.8in /  1009.1hPa Calm     85% 0in /  0.0mm 0 W/m2
03:28 65.1 °F /  18.4 °C 60.8 °F /  16 °C 29.8in /  1009.5hPa Calm     86% 0in /  0.0mm 0 W/m2
03:33 65.1 °F /  18.4 °C 60.8 °F /  16 °C 29.8in /  1009.5hPa Calm     86% 0in /  0.0mm 0 W/m2
03:38 65.1 °F /  18.4 °C 60.8 °F /  16 °C 29.8in /  1009.8hPa Calm   1mph /  1.6km/h 86% 0in /  0.0mm 0 W/m2
03:43 64.9 °F /  18.3 °C 60.6 °F /  15.9 °C 29.8in /  1009.8hPa Calm     86% 0in /  0.0mm 0 W/m2
03:48 64.9 °F /  18.3 °C 60.6 °F /  15.9 °C 29.8in /  1009.5hPa Calm     86% 0in /  0.0mm 0 W/m2
03:53 64.8 °F /  18.2 °C 60.1 °F /  15.6 °C 29.8in /  1009.5hPa Calm     85% 0in /  0.0mm 0 W/m2
03:58 64.8 °F /  18.2 °C 60.1 °F /  15.6 °C 29.8in /  1009.8hPa Calm     85% 0in /  0.0mm 0 W/m2
04:03 64.6 °F /  18.1 °C 59.9 °F /  15.5 °C 29.8in /  1009.8hPa Calm     85% 0in /  0.0mm 0 W/m2
04:08 64.4 °F /  18 °C 59.7 °F /  15.4 °C 29.8in /  1009.8hPa Calm     85% 0in /  0.0mm 0 W/m2
04:13 64.2 °F /  17.9 °C 59.5 °F /  15.3 °C 29.8in /  1009.8hPa Calm     85% 0in /  0.0mm 0 W/m2
04:18 64.2 °F /  17.9 °C 59.5 °F /  15.3 °C 29.8in /  1009.8hPa Calm     85% 0in /  0.0mm 0 W/m2
04:23 64.2 °F /  17.9 °C 59.4 °F /  15.2 °C 29.8in /  1009.8hPa Calm     84% 0in /  0.0mm 0 W/m2
04:28 64.2 °F /  17.9 °C 59.4 °F /  15.2 °C 29.8in /  1009.8hPa Calm     84% 0in /  0.0mm 0 W/m2
04:33 64.2 °F /  17.9 °C 59.5 °F /  15.3 °C 29.8in /  1009.8hPa Calm     85% 0in /  0.0mm 0 W/m2
04:38 64.2 °F /  17.9 °C 59.9 °F /  15.5 °C 29.8in /  1009.8hPa Calm     86% 0in /  0.0mm 0 W/m2
04:43 64.2 °F /  17.9 °C 59.9 °F /  15.5 °C 29.8in /  1009.8hPa Calm     86% 0in /  0.0mm 0 W/m2
04:48 64 °F /  17.8 °C 59.7 °F /  15.4 °C 29.8in /  1009.5hPa Calm     86% 0in /  0.0mm 0 W/m2
04:53 64 °F /  17.8 °C 60.1 °F /  15.6 °C 29.8in /  1009.5hPa Calm     87% 0in /  0.0mm 0 W/m2
04:58 64 °F /  17.8 °C 60.1 °F /  15.6 °C 29.8in /  1009.5hPa Calm     87% 0in /  0.0mm 0 W/m2
05:03 63.9 °F /  17.7 °C 59.9 °F /  15.5 °C 29.8in /  1009.5hPa Calm     87% 0in /  0.0mm 0 W/m2
05:08 63.7 °F /  17.6 °C 59.7 °F /  15.4 °C 29.8in /  1009.5hPa Calm     87% 0in /  0.0mm 0 W/m2
05:13 63.7 °F /  17.6 °C 59.7 °F /  15.4 °C 29.8in /  1009.8hPa Calm     87% 0in /  0.0mm 0 W/m2
05:18 63.5 °F /  17.5 °C 59.5 °F /  15.3 °C 29.8in /  1009.8hPa Calm     87% 0in /  0.0mm 0 W/m2
05:23 63.3 °F /  17.4 °C 59.7 °F /  15.4 °C 29.8in /  1009.8hPa Calm     88% 0in /  0.0mm 0 W/m2
05:28 63.1 °F /  17.3 °C 59.5 °F /  15.3 °C 29.8in /  1009.5hPa Calm     88% 0in /  0.0mm 0 W/m2
05:33 63.1 °F /  17.3 °C 59.5 °F /  15.3 °C 29.8in /  1009.5hPa Calm     88% 0in /  0.0mm 0 W/m2
05:38 63.1 °F /  17.3 °C 59.9 °F /  15.5 °C 29.8in /  1009.5hPa Calm     89% 0in /  0.0mm 5 W/m2
05:43 63 °F /  17.2 °C 59.7 °F /  15.4 °C 29.8in /  1009.5hPa Calm     89% 0in /  0.0mm 9 W/m2
05:48 63 °F /  17.2 °C 59.7 °F /  15.4 °C 29.8in /  1009.5hPa Calm     89% 0in /  0.0mm 11 W/m2
05:53 63 °F /  17.2 °C 59.7 °F /  15.4 °C 29.8in /  1009.5hPa Calm     89% 0in /  0.0mm 11 W/m2
05:58 63 °F /  17.2 °C 59.7 °F /  15.4 °C 29.8in /  1009.5hPa Calm     89% 0in /  0.0mm 12 W/m2
06:03 63 °F /  17.2 °C 59.7 °F /  15.4 °C 29.8in /  1009.5hPa Calm     89% 0in /  0.0mm 16 W/m2
06:08 63 °F /  17.2 °C 59.9 °F /  15.5 °C 29.8in /  1009.5hPa Calm     90% 0in /  0.0mm 19 W/m2
06:13 63.1 °F /  17.3 °C 60.1 °F /  15.6 °C 29.8in /  1009.5hPa Calm     90% 0in /  0.0mm 26 W/m2
06:18 63.1 °F /  17.3 °C 60.1 °F /  15.6 °C 29.8in /  1009.8hPa Calm     90% 0in /  0.0mm 40 W/m2
06:23 63.1 °F /  17.3 °C 60.1 °F /  15.6 °C 29.8in /  1009.8hPa Calm     90% 0in /  0.0mm 47 W/m2
06:28 63.7 °F /  17.6 °C 60.6 °F /  15.9 °C 29.8in /  1009.8hPa Calm     90% 0in /  0.0mm 65 W/m2
06:33 64 °F /  17.8 °C 61 °F /  16.1 °C 29.8in /  1009.8hPa Calm   2mph /  3.2km/h 90% 0in /  0.0mm 70 W/m2
06:38 64.6 °F /  18.1 °C 61.3 °F /  16.3 °C 29.8in /  1010.2hPa Calm     89% 0in /  0.0mm 69 W/m2
06:43 64.9 °F /  18.3 °C 61.3 °F /  16.3 °C 29.8in /  1010.2hPa Calm   2mph /  3.2km/h 88% 0in /  0.0mm 69 W/m2
06:48 65.5 °F /  18.6 °C 61.5 °F /  16.4 °C 29.8in /  1010.2hPa Calm     87% 0in /  0.0mm 72 W/m2
06:53 65.8 °F /  18.8 °C 61.5 °F /  16.4 °C 29.8in /  1010.2hPa WSW 0.9mph /  1.4km/h 1mph /  1.6km/h 86% 0in /  0.0mm 72 W/m2
06:58 66.4 °F /  19.1 °C 62.1 °F /  16.7 °C 29.8in /  1009.8hPa SSE 2mph /  3.2km/h 2mph /  3.2km/h 86% 0in /  0.0mm 77 W/m2
07:03 66.6 °F /  19.2 °C 61.5 °F /  16.4 °C 29.8in /  1009.8hPa SE 0.9mph /  1.4km/h 1mph /  1.6km/h 84% 0in /  0.0mm 88 W/m2
07:08 66.9 °F /  19.4 °C 61.5 °F /  16.4 °C 29.8in /  1009.8hPa ENE 0.9mph /  1.4km/h 2mph /  3.2km/h 83% 0in /  0.0mm 77 W/m2
07:13 67.1 °F /  19.5 °C 61.7 °F /  16.5 °C 29.8in /  1009.8hPa Calm   2mph /  3.2km/h 83% 0in /  0.0mm 70 W/m2
07:18 67.3 °F /  19.6 °C 61.9 °F /  16.6 °C 29.8in /  1009.8hPa East 0.9mph /  1.4km/h 2mph /  3.2km/h 83% 0in /  0.0mm 83 W/m2
07:23 67.5 °F /  19.7 °C 61.7 °F /  16.5 °C 29.8in /  1010.2hPa Calm     82% 0in /  0.0mm 70 W/m2
07:28 67.6 °F /  19.8 °C 61.9 °F /  16.6 °C 29.8in /  1010.5hPa Calm   1mph /  1.6km/h 82% 0in /  0.0mm 63 W/m2
07:33 67.8 °F /  19.9 °C 61.7 °F /  16.5 °C 29.8in /  1010.5hPa Calm   2mph /  3.2km/h 81% 0in /  0.0mm 65 W/m2
07:38 68 °F /  20 °C 61.9 °F /  16.6 °C 29.8in /  1010.2hPa Calm   2mph /  3.2km/h 81% 0in /  0.0mm 135 W/m2
07:43 68.2 °F /  20.1 °C 61.7 °F /  16.5 °C 29.8in /  1010.2hPa NE 2mph /  3.2km/h 2mph /  3.2km/h 80% 0in /  0.0mm 204 W/m2
07:48 68.5 °F /  20.3 °C 62.1 °F /  16.7 °C 29.8in /  1010.2hPa Calm     80% 0in /  0.0mm 204 W/m2
07:54 69.4 °F /  20.8 °C 62.6 °F /  17 °C 29.8in /  1010.2hPa ENE 2mph /  3.2km/h 3mph /  4.8km/h 79% 0in /  0.0mm 199 W/m2
07:59 70.2 °F /  21.2 °C 62.6 °F /  17 °C 29.8in /  1010.2hPa ENE 0.9mph /  1.4km/h 2mph /  3.2km/h 77% 0in /  0.0mm 207 W/m2
08:04 70.9 °F /  21.6 °C 63 °F /  17.2 °C 29.8in /  1010.2hPa East 0.9mph /  1.4km/h 3mph /  4.8km/h 76% 0in /  0.0mm 239 W/m2
08:09 71.2 °F /  21.8 °C 63.3 °F /  17.4 °C 29.8in /  1010.2hPa Calm   2mph /  3.2km/h 76% 0in /  0.0mm 251 W/m2
08:14 71.8 °F /  22.1 °C 63 °F /  17.2 °C 29.8in /  1010.5hPa ENE 2.9mph /  4.7km/h 3mph /  4.8km/h 74% 0in /  0.0mm 216 W/m2
08:19 72.1 °F /  22.3 °C 63.3 °F /  17.4 °C 29.8in /  1010.5hPa ENE 0.9mph /  1.4km/h 2mph /  3.2km/h 74% 0in /  0.0mm 127 W/m2
08:24 72.7 °F /  22.6 °C 63.5 °F /  17.5 °C 29.8in /  1010.5hPa NNE 0.9mph /  1.4km/h 3mph /  4.8km/h 73% 0in /  0.0mm 83 W/m2
08:29 73 °F /  22.8 °C 63.9 °F /  17.7 °C 29.8in /  1010.2hPa East 0.9mph /  1.4km/h 3mph /  4.8km/h 73% 0in /  0.0mm 81 W/m2
08:34 73.2 °F /  22.9 °C 63.7 °F /  17.6 °C 29.8in /  1010.2hPa ENE 0.9mph /  1.4km/h 5mph /  8km/h 72% 0in /  0.0mm 83 W/m2
08:39 73.8 °F /  23.2 °C 64.2 °F /  17.9 °C 29.8in /  1010.2hPa NE 2.9mph /  4.7km/h 6mph /  9.7km/h 72% 0in /  0.0mm 83 W/m2
08:44 73.8 °F /  23.2 °C 64.6 °F /  18.1 °C 29.8in /  1010.2hPa NNE 2mph /  3.2km/h 3mph /  4.8km/h 73% 0in /  0.0mm 83 W/m2
08:49 74.1 °F /  23.4 °C 64.6 °F /  18.1 °C 29.8in /  1010.2hPa NE 2mph /  3.2km/h 6mph /  9.7km/h 72% 0in /  0.0mm 84 W/m2
08:54 74.5 °F /  23.6 °C 64.9 °F /  18.3 °C 29.8in /  1010.5hPa NE 2mph /  3.2km/h 4mph /  6.4km/h 72% 0in /  0.0mm 88 W/m2
08:59 74.7 °F /  23.7 °C 65.1 °F /  18.4 °C 29.8in /  1010.2hPa NE 2mph /  3.2km/h 2mph /  3.2km/h 72% 0in /  0.0mm 88 W/m2
09:04 75 °F /  23.9 °C 65.3 °F /  18.5 °C 29.8in /  1010.5hPa ENE 0.9mph /  1.4km/h 1mph /  1.6km/h 72% 0in /  0.0mm 91 W/m2
09:09 75.4 °F /  24.1 °C 65.3 °F /  18.5 °C 29.8in /  1010.5hPa Calm   3mph /  4.8km/h 71% 0in /  0.0mm 93 W/m2
09:14 75.7 °F /  24.3 °C 64.8 °F /  18.2 °C 29.8in /  1010.5hPa NE 2mph /  3.2km/h 5mph /  8km/h 69% 0in /  0.0mm 127 W/m2
09:19 75.7 °F /  24.3 °C 64.8 °F /  18.2 °C 29.8in /  1010.5hPa ENE 2mph /  3.2km/h 3mph /  4.8km/h 69% 0in /  0.0mm 276 W/m2
09:24 76.3 °F /  24.6 °C 65.3 °F /  18.5 °C 29.8in /  1010.5hPa NE 0.9mph /  1.4km/h 3mph /  4.8km/h 69% 0in /  0.0mm 441 W/m2
09:29 76.6 °F /  24.8 °C 65.3 °F /  18.5 °C 29.8in /  1010.5hPa NE 2.9mph /  4.7km/h 5mph /  8km/h 68% 0in /  0.0mm 462 W/m2
09:34 76.8 °F /  24.9 °C 65.5 °F /  18.6 °C 29.8in /  1010.5hPa NE 4mph /  6.4km/h 4mph /  6.4km/h 68% 0in /  0.0mm 480 W/m2
09:39 77.4 °F /  25.2 °C 65.5 °F /  18.6 °C 29.8in /  1010.5hPa East 2mph /  3.2km/h 5mph /  8km/h 67% 0in /  0.0mm 496 W/m2
09:44 77.5 °F /  25.3 °C 65.7 °F /  18.7 °C 29.8in /  1010.5hPa East 2.9mph /  4.7km/h 4mph /  6.4km/h 67% 0in /  0.0mm 508 W/m2
09:49 77.7 °F /  25.4 °C 65.5 °F /  18.6 °C 29.8in /  1010.2hPa East 0.9mph /  1.4km/h 3mph /  4.8km/h 66% 0in /  0.0mm 522 W/m2
09:54 78.1 °F /  25.6 °C 65.8 °F /  18.8 °C 29.8in /  1010.5hPa ESE 2mph /  3.2km/h 4mph /  6.4km/h 66% 0in /  0.0mm 534 W/m2
09:59 78.6 °F /  25.9 °C 65.8 °F /  18.8 °C 29.8in /  1010.5hPa ESE 2.9mph /  4.7km/h 7mph /  11.3km/h 65% 0in /  0.0mm 543 W/m2
10:04 79.2 °F /  26.2 °C 66.4 °F /  19.1 °C 29.8in /  1010.2hPa ENE 0.9mph /  1.4km/h 3mph /  4.8km/h 65% 0in /  0.0mm 559 W/m2
10:09 79.5 °F /  26.4 °C 66.2 °F /  19 °C 29.8in /  1010.5hPa East 2mph /  3.2km/h 7mph /  11.3km/h 64% 0in /  0.0mm 499 W/m2
10:14 80.2 °F /  26.8 °C 66.6 °F /  19.2 °C 29.8in /  1010.5hPa NW 2mph /  3.2km/h 3mph /  4.8km/h 63% 0in /  0.0mm 178 W/m2
10:19 80.8 °F /  27.1 °C 66.9 °F /  19.4 °C 29.8in /  1010.5hPa Calm   4mph /  6.4km/h 63% 0in /  0.0mm 763 W/m2
10:24 81.3 °F /  27.4 °C 66.6 °F /  19.2 °C 29.8in /  1010.5hPa NE 2.9mph /  4.7km/h 3mph /  4.8km/h 61% 0in /  0.0mm 628 W/m2
10:29 81.7 °F /  27.6 °C 67.5 °F /  19.7 °C 29.8in /  1010.5hPa WNW 2mph /  3.2km/h 2mph /  3.2km/h 62% 0in /  0.0mm 619 W/m2
10:34 81.3 °F /  27.4 °C 67.1 °F /  19.5 °C 29.8in /  1010.5hPa Calm   4mph /  6.4km/h 62% 0in /  0.0mm 846 W/m2
10:39 81.3 °F /  27.4 °C 66.6 °F /  19.2 °C 29.8in /  1010.5hPa South 2mph /  3.2km/h 5mph /  8km/h 61% 0in /  0.0mm 499 W/m2
10:44 81.1 °F /  27.3 °C 66.4 °F /  19.1 °C 29.8in /  1010.5hPa ESE 6mph /  9.7km/h 6mph /  9.7km/h 61% 0in /  0.0mm 680 W/m2
10:49 81.3 °F /  27.4 °C 65.7 °F /  18.7 °C 29.8in /  1010.5hPa West 2mph /  3.2km/h 3mph /  4.8km/h 59% 0in /  0.0mm 677 W/m2
10:54 81.5 °F /  27.5 °C 66.2 °F /  19 °C 29.8in /  1010.5hPa Calm   1mph /  1.6km/h 60% 0in /  0.0mm 677 W/m2
10:59 82.6 °F /  28.1 °C 67.3 °F /  19.6 °C 29.8in /  1010.5hPa ESE 0.9mph /  1.4km/h 3mph /  4.8km/h 60% 0in /  0.0mm 684 W/m2
11:04 83.7 °F /  28.7 °C 67.3 °F /  19.6 °C 29.8in /  1010.5hPa Calm   2mph /  3.2km/h 58% 0in /  0.0mm 707 W/m2
11:09 84.4 °F /  29.1 °C 68 °F /  20 °C 29.8in /  1010.5hPa NNW 0.9mph /  1.4km/h 3mph /  4.8km/h 58% 0in /  0.0mm 708 W/m2
11:14 84.7 °F /  29.3 °C 68.4 °F /  20.2 °C 29.8in /  1010.5hPa SW 0.9mph /  1.4km/h 2mph /  3.2km/h 58% 0in /  0.0mm 712 W/m2
11:19 84.7 °F /  29.3 °C 67.8 °F /  19.9 °C 29.8in /  1010.5hPa ENE 2mph /  3.2km/h 2mph /  3.2km/h 57% 0in /  0.0mm 728 W/m2
11:24 84.6 °F /  29.2 °C 67.6 °F /  19.8 °C 29.8in /  1010.5hPa West 2.9mph /  4.7km/h 7mph /  11.3km/h 57% 0in /  0.0mm 744 W/m2
11:29 84.4 °F /  29.1 °C 68 °F /  20 °C 29.8in /  1010.5hPa NNW 2mph /  3.2km/h 2mph /  3.2km/h 58% 0in /  0.0mm 738 W/m2
11:34 84.6 °F /  29.2 °C 68.2 °F /  20.1 °C 29.8in /  1010.5hPa NE 0.9mph /  1.4km/h 3mph /  4.8km/h 58% 0in /  0.0mm 752 W/m2
11:39 84.6 °F /  29.2 °C 67.6 °F /  19.8 °C 29.8in /  1010.5hPa East 0.9mph /  1.4km/h 3mph /  4.8km/h 57% 0in /  0.0mm 765 W/m2
11:44 84.6 °F /  29.2 °C 67.6 °F /  19.8 °C 29.8in /  1010.5hPa Calm   4mph /  6.4km/h 57% 0in /  0.0mm 772 W/m2
11:49 84.6 °F /  29.2 °C 67.1 °F /  19.5 °C 29.8in /  1010.5hPa WNW 6mph /  9.7km/h 7mph /  11.3km/h 56% 0in /  0.0mm 784 W/m2
11:54 84.7 °F /  29.3 °C 66.7 °F /  19.3 °C 29.8in /  1010.5hPa WNW 2mph /  3.2km/h 4mph /  6.4km/h 55% 0in /  0.0mm 791 W/m2
11:59 85.1 °F /  29.5 °C 65.5 °F /  18.6 °C 29.9in /  1010.8hPa WNW 2mph /  3.2km/h 3mph /  4.8km/h 52% 0in /  0.0mm 802 W/m2
12:04 85.5 °F /  29.7 °C 65.8 °F /  18.8 °C 29.9in /  1010.8hPa NNE 2.9mph /  4.7km/h 5mph /  8km/h 52% 0in /  0.0mm 805 W/m2
12:09 85.5 °F /  29.7 °C 65.8 °F /  18.8 °C 29.9in /  1010.8hPa East 0.9mph /  1.4km/h 5mph /  8km/h 52% 0in /  0.0mm 812 W/m2
12:14 85.5 °F /  29.7 °C 65.3 °F /  18.5 °C 29.9in /  1010.8hPa North 4mph /  6.4km/h 4mph /  6.4km/h 51% 0in /  0.0mm 807 W/m2
12:19 85.6 °F /  29.8 °C 64.9 °F /  18.3 °C 29.9in /  1010.8hPa NNW 2.9mph /  4.7km/h 7mph /  11.3km/h 50% 0in /  0.0mm 831 W/m2
12:24 85.5 °F /  29.7 °C 63.5 °F /  17.5 °C 29.9in /  1010.8hPa NNW 0.9mph /  1.4km/h 5mph /  8km/h 48% 0in /  0.0mm 826 W/m2
12:29 85.5 °F /  29.7 °C 64.8 °F /  18.2 °C 29.9in /  1010.8hPa WSW 2.9mph /  4.7km/h 9mph /  14.5km/h 50% 0in /  0.0mm 842 W/m2
12:34 85.5 °F /  29.7 °C 64.8 °F /  18.2 °C 29.8in /  1010.5hPa WNW 2.9mph /  4.7km/h 8mph /  12.9km/h 50% 0in /  0.0mm 849 W/m2
12:39 85.6 °F /  29.8 °C 65.5 °F /  18.6 °C 29.8in /  1010.5hPa Calm   7mph /  11.3km/h 51% 0in /  0.0mm 842 W/m2
12:44 86 °F /  30 °C 64.6 °F /  18.1 °C 29.8in /  1010.5hPa West 8.1mph /  13km/h 10mph /  16.1km/h 49% 0in /  0.0mm 847 W/m2
12:49 86 °F /  30 °C 65.1 °F /  18.4 °C 29.8in /  1010.5hPa NW 4.9mph /  7.9km/h 7mph /  11.3km/h 50% 0in /  0.0mm 846 W/m2
12:54 86 °F /  30 °C 65.8 °F /  18.8 °C 29.8in /  1010.5hPa WNW 2mph /  3.2km/h 5mph /  8km/h 51% 0in /  0.0mm 847 W/m2
12:59 86.2 °F /  30.1 °C 65.8 °F /  18.8 °C 29.8in /  1010.5hPa SW 4mph /  6.4km/h 4mph /  6.4km/h 51% 0in /  0.0mm 853 W/m2
13:04 86.5 °F /  30.3 °C 66.2 °F /  19 °C 29.8in /  1010.5hPa NW 4.9mph /  7.9km/h 5mph /  8km/h 51% 0in /  0.0mm 870 W/m2
13:09 86.7 °F /  30.4 °C 65.3 °F /  18.5 °C 29.8in /  1010.5hPa NNW 8.1mph /  13km/h 9mph /  14.5km/h 49% 0in /  0.0mm 870 W/m2
13:14 86.5 °F /  30.3 °C 65.1 °F /  18.4 °C 29.8in /  1010.5hPa SSW 4mph /  6.4km/h 6mph /  9.7km/h 49% 0in /  0.0mm 872 W/m2
13:19 86.2 °F /  30.1 °C 66.6 °F /  19.2 °C 29.8in /  1010.5hPa NW 2.9mph /  4.7km/h 5mph /  8km/h 52% 0in /  0.0mm 889 W/m2
13:24 86.2 °F /  30.1 °C 66.6 °F /  19.2 °C 29.8in /  1010.5hPa Calm   3mph /  4.8km/h 52% 0in /  0.0mm 872 W/m2
13:29 86.4 °F /  30.2 °C 66 °F /  18.9 °C 29.8in /  1010.5hPa West 0.9mph /  1.4km/h 4mph /  6.4km/h 51% 0in /  0.0mm 872 W/m2
13:34 86.5 °F /  30.3 °C 65.1 °F /  18.4 °C 29.8in /  1010.5hPa WNW 2.9mph /  4.7km/h 8mph /  12.9km/h 49% 0in /  0.0mm 874 W/m2
13:39 86.4 °F /  30.2 °C 65.5 °F /  18.6 °C 29.8in /  1010.5hPa WNW 2mph /  3.2km/h 4mph /  6.4km/h 50% 0in /  0.0mm 870 W/m2
13:44 86.9 °F /  30.5 °C 65.5 °F /  18.6 °C 29.8in /  1010.5hPa WNW 2.9mph /  4.7km/h 8mph /  12.9km/h 49% 0in /  0.0mm 847 W/m2
13:49 87.1 °F /  30.6 °C 65.7 °F /  18.7 °C 29.8in /  1010.5hPa NE 4mph /  6.4km/h 4mph /  6.4km/h 49% 0in /  0.0mm 847 W/m2
13:54 87.1 °F /  30.6 °C 66.2 °F /  19 °C 29.8in /  1010.5hPa West 4mph /  6.4km/h 10mph /  16.1km/h 50% 0in /  0.0mm 870 W/m2
13:59 87.1 °F /  30.6 °C 66.7 °F /  19.3 °C 29.8in /  1010.5hPa WSW 4mph /  6.4km/h 8mph /  12.9km/h 51% 0in /  0.0mm 888 W/m2
14:04 86.7 °F /  30.4 °C 65.8 °F /  18.8 °C 29.8in /  1010.5hPa West 4mph /  6.4km/h 6mph /  9.7km/h 50% 0in /  0.0mm 923 W/m2
14:09 86.7 °F /  30.4 °C 65.3 °F /  18.5 °C 29.8in /  1010.5hPa West 6mph /  9.7km/h 9mph /  14.5km/h 49% 0in /  0.0mm 942 W/m2
14:14 87.1 °F /  30.6 °C 66.2 °F /  19 °C 29.8in /  1010.5hPa West 0.9mph /  1.4km/h 3mph /  4.8km/h 50% 0in /  0.0mm 932 W/m2
14:19 87.6 °F /  30.9 °C 66.7 °F /  19.3 °C 29.8in /  1010.5hPa WSW 0.9mph /  1.4km/h 9mph /  14.5km/h 50% 0in /  0.0mm 902 W/m2
14:24 87.3 °F /  30.7 °C 66.4 °F /  19.1 °C 29.8in /  1010.5hPa West 6mph /  9.7km/h 9mph /  14.5km/h 50% 0in /  0.0mm 904 W/m2
14:29 87.1 °F /  30.6 °C 66.2 °F /  19 °C 29.8in /  1010.2hPa WNW 8.1mph /  13km/h 9mph /  14.5km/h 50% 0in /  0.0mm 886 W/m2
14:34 87.1 °F /  30.6 °C 65.7 °F /  18.7 °C 29.8in /  1010.2hPa West 0.9mph /  1.4km/h 6mph /  9.7km/h 49% 0in /  0.0mm 868 W/m2
14:39 87.3 °F /  30.7 °C 66.4 °F /  19.1 °C 29.8in /  1010.5hPa SSE 0.9mph /  1.4km/h 3mph /  4.8km/h 50% 0in /  0.0mm 870 W/m2
14:44 88 °F /  31.1 °C 65.8 °F /  18.8 °C 29.8in /  1010.2hPa NW 2mph /  3.2km/h 6mph /  9.7km/h 48% 0in /  0.0mm 886 W/m2
14:49 88.9 °F /  31.6 °C 66.6 °F /  19.2 °C 29.8in /  1010.2hPa NNW 2mph /  3.2km/h 3mph /  4.8km/h 48% 0in /  0.0mm 904 W/m2
14:54 88.5 °F /  31.4 °C 65.7 °F /  18.7 °C 29.8in /  1010.2hPa WSW 2.9mph /  4.7km/h 7mph /  11.3km/h 47% 0in /  0.0mm 896 W/m2
14:59 88.3 °F /  31.3 °C 64.2 °F /  17.9 °C 29.8in /  1010.2hPa North 0.9mph /  1.4km/h 3mph /  4.8km/h 45% 0in /  0.0mm 858 W/m2
15:04 88.2 °F /  31.2 °C 65.3 °F /  18.5 °C 29.8in /  1010.2hPa WNW 0.9mph /  1.4km/h 2mph /  3.2km/h 47% 0in /  0.0mm 847 W/m2
15:09 88.2 °F /  31.2 °C 64.2 °F /  17.9 °C 29.8in /  1010.2hPa WNW 2mph /  3.2km/h 11mph /  17.7km/h 45% 0in /  0.0mm 849 W/m2
15:14 88.2 °F /  31.2 °C 66 °F /  18.9 °C 29.8in /  1010.2hPa SSW 2mph /  3.2km/h 3mph /  4.8km/h 48% 0in /  0.0mm 847 W/m2
15:19 88.3 °F /  31.3 °C 65.5 °F /  18.6 °C 29.8in /  1010.2hPa Calm   11mph /  17.7km/h 47% 0in /  0.0mm 837 W/m2
15:24 88.5 °F /  31.4 °C 66.4 °F /  19.1 °C 29.8in /  1010.2hPa ESE 6mph /  9.7km/h 7mph /  11.3km/h 48% 0in /  0.0mm 838 W/m2
15:29 89.1 °F /  31.7 °C 66.7 °F /  19.3 °C 29.8in /  1009.8hPa NE 2.9mph /  4.7km/h 3mph /  4.8km/h 48% 0in /  0.0mm 837 W/m2
15:34 89.4 °F /  31.9 °C 65.8 °F /  18.8 °C 29.8in /  1010.2hPa West 2mph /  3.2km/h 6mph /  9.7km/h 46% 0in /  0.0mm 830 W/m2
15:39 89.1 °F /  31.7 °C 65.7 °F /  18.7 °C 29.8in /  1010.2hPa West 2.9mph /  4.7km/h 5mph /  8km/h 46% 0in /  0.0mm 823 W/m2
15:44 88.7 °F /  31.5 °C 65.3 °F /  18.5 °C 29.8in /  1009.8hPa SSW 2.9mph /  4.7km/h 6mph /  9.7km/h 46% 0in /  0.0mm 805 W/m2
15:49 88.9 °F /  31.6 °C 67.3 °F /  19.6 °C 29.8in /  1009.8hPa North 0.9mph /  1.4km/h 3mph /  4.8km/h 49% 0in /  0.0mm 807 W/m2
15:55 89.1 °F /  31.7 °C 65.7 °F /  18.7 °C 29.8in /  1010.2hPa West 2.9mph /  4.7km/h 7mph /  11.3km/h 46% 0in /  0.0mm 169 W/m2
16:00 88.5 °F /  31.4 °C 66.4 °F /  19.1 °C 29.8in /  1010.2hPa WNW 0.9mph /  1.4km/h 2mph /  3.2km/h 48% 0in /  0.0mm 826 W/m2
16:05 88.5 °F /  31.4 °C 66.4 °F /  19.1 °C 29.8in /  1010.2hPa West 2.9mph /  4.7km/h 7mph /  11.3km/h 48% 0in /  0.0mm 258 W/m2
16:10 88.3 °F /  31.3 °C 66.2 °F /  19 °C 29.8in /  1010.2hPa WNW 0.9mph /  1.4km/h 3mph /  4.8km/h 48% 0in /  0.0mm 229 W/m2
16:15 88.3 °F /  31.3 °C 66.2 °F /  19 °C 29.8in /  1010.2hPa ENE 2.9mph /  4.7km/h 6mph /  9.7km/h 48% 0in /  0.0mm 742 W/m2
16:20 89.1 °F /  31.7 °C 66.7 °F /  19.3 °C 29.8in /  1010.2hPa ESE 2.9mph /  4.7km/h 3mph /  4.8km/h 48% 0in /  0.0mm 663 W/m2
16:25 89.4 °F /  31.9 °C 65.8 °F /  18.8 °C 29.8in /  1009.8hPa SE 0.9mph /  1.4km/h 4mph /  6.4km/h 46% 0in /  0.0mm 543 W/m2
16:30 89.4 °F /  31.9 °C 68.4 °F /  20.2 °C 29.8in /  1009.8hPa Calm   2mph /  3.2km/h 50% 0in /  0.0mm 548 W/m2
16:35 89.6 °F /  32 °C 66.7 °F /  19.3 °C 29.8in /  1009.8hPa Calm   3mph /  4.8km/h 47% 0in /  0.0mm 635 W/m2
16:40 90 °F /  32.2 °C 67.1 °F /  19.5 °C 29.8in /  1009.8hPa Calm   4mph /  6.4km/h 47% 0in /  0.0mm 680 W/m2
16:45 90.1 °F /  32.3 °C 66.6 °F /  19.2 °C 29.8in /  1009.8hPa South 0.9mph /  1.4km/h 6mph /  9.7km/h 46% 0in /  0.0mm 721 W/m2
16:50 90.1 °F /  32.3 °C 65.8 °F /  18.8 °C 29.8in /  1009.8hPa ESE 2.9mph /  4.7km/h 5mph /  8km/h 45% 0in /  0.0mm 652 W/m2
16:55 90.1 °F /  32.3 °C 65.8 °F /  18.8 °C 29.8in /  1009.8hPa South 0.9mph /  1.4km/h 3mph /  4.8km/h 45% 0in /  0.0mm 548 W/m2
17:00 90.3 °F /  32.4 °C 66 °F /  18.9 °C 29.8in /  1009.8hPa East 2mph /  3.2km/h 5mph /  8km/h 45% 0in /  0.0mm 584 W/m2
17:05 90.9 °F /  32.7 °C 66.6 °F /  19.2 °C 29.8in /  1009.8hPa SE 2mph /  3.2km/h 3mph /  4.8km/h 45% 0in /  0.0mm 673 W/m2
17:10 90.5 °F /  32.5 °C 66.2 °F /  19 °C 29.8in /  1009.8hPa West 2mph /  3.2km/h 6mph /  9.7km/h 45% 0in /  0.0mm 647 W/m2
17:15 90 °F /  32.2 °C 65.8 °F /  18.8 °C 29.8in /  1009.5hPa NW 2.9mph /  4.7km/h 5mph /  8km/h 45% 0in /  0.0mm 606 W/m2
17:20 89.8 °F /  32.1 °C 66.2 °F /  19 °C 29.8in /  1009.8hPa East 2mph /  3.2km/h 2mph /  3.2km/h 46% 0in /  0.0mm 615 W/m2
17:25 90.1 °F /  32.3 °C 66.6 °F /  19.2 °C 29.8in /  1009.5hPa WNW 2.9mph /  4.7km/h 8mph /  12.9km/h 46% 0in /  0.0mm 629 W/m2
17:30 90.1 °F /  32.3 °C 67.1 °F /  19.5 °C 29.8in /  1009.5hPa WNW 4mph /  6.4km/h 5mph /  8km/h 47% 0in /  0.0mm 612 W/m2
17:35 90.5 °F /  32.5 °C 67.5 °F /  19.7 °C 29.8in /  1009.5hPa NW 2mph /  3.2km/h 8mph /  12.9km/h 47% 0in /  0.0mm 589 W/m2
17:40 90.7 °F /  32.6 °C 68.4 °F /  20.2 °C 29.8in /  1009.5hPa WNW 2mph /  3.2km/h 3mph /  4.8km/h 48% 0in /  0.0mm 570 W/m2
17:45 90.7 °F /  32.6 °C 67.6 °F /  19.8 °C 29.8in /  1009.5hPa North 0.9mph /  1.4km/h 3mph /  4.8km/h 47% 0in /  0.0mm 461 W/m2
17:50 90.3 °F /  32.4 °C 68 °F /  20 °C 29.8in /  1009.5hPa Calm   2mph /  3.2km/h 48% 0in /  0.0mm 494 W/m2
17:55 90.3 °F /  32.4 °C 68 °F /  20 °C 29.8in /  1009.5hPa NW 0.9mph /  1.4km/h 2mph /  3.2km/h 48% 0in /  0.0mm 545 W/m2
18:00 90.1 °F /  32.3 °C 67.8 °F /  19.9 °C 29.8in /  1009.5hPa Calm   3mph /  4.8km/h 48% 0in /  0.0mm 443 W/m2
18:05 90 °F /  32.2 °C 67.6 °F /  19.8 °C 29.8in /  1009.5hPa East 2.9mph /  4.7km/h 3mph /  4.8km/h 48% 0in /  0.0mm 265 W/m2
18:10 89.8 °F /  32.1 °C 67.5 °F /  19.7 °C 29.8in /  1009.5hPa SSW 0.9mph /  1.4km/h 2mph /  3.2km/h 48% 0in /  0.0mm 367 W/m2
18:15 90 °F /  32.2 °C 68.9 °F /  20.5 °C 29.8in /  1009.5hPa Calm   1mph /  1.6km/h 50% 0in /  0.0mm 482 W/m2
18:20 90.3 °F /  32.4 °C 68 °F /  20 °C 29.8in /  1009.5hPa WNW 2mph /  3.2km/h 2mph /  3.2km/h 48% 0in /  0.0mm 403 W/m2
18:25 91 °F /  32.8 °C 69.3 °F /  20.7 °C 29.8in /  1009.5hPa West 0.9mph /  1.4km/h 2mph /  3.2km/h 49% 0in /  0.0mm 404 W/m2
18:30 90.7 °F /  32.6 °C 67.6 °F /  19.8 °C 29.8in /  1009.5hPa Calm   2mph /  3.2km/h 47% 0in /  0.0mm 308 W/m2
18:35 90.3 °F /  32.4 °C 69.1 °F /  20.6 °C 29.8in /  1009.5hPa Calm   3mph /  4.8km/h 50% 0in /  0.0mm 278 W/m2
18:40 90.1 °F /  32.3 °C 68.4 °F /  20.2 °C 29.8in /  1009.5hPa Calm   1mph /  1.6km/h 49% 0in /  0.0mm 216 W/m2
18:45 90.1 °F /  32.3 °C 68.4 °F /  20.2 °C 29.8in /  1009.5hPa ESE 2mph /  3.2km/h 2mph /  3.2km/h 49% 0in /  0.0mm 195 W/m2
18:50 89.8 °F /  32.1 °C 68.7 °F /  20.4 °C 29.8in /  1009.5hPa East 2mph /  3.2km/h 3mph /  4.8km/h 50% 0in /  0.0mm 162 W/m2
18:55 89.4 °F /  31.9 °C 68.9 °F /  20.5 °C 29.8in /  1009.5hPa Calm   2mph /  3.2km/h 51% 0in /  0.0mm 295 W/m2
19:00 89.4 °F /  31.9 °C 68.4 °F /  20.2 °C 29.8in /  1009.5hPa Calm   1mph /  1.6km/h 50% 0in /  0.0mm 302 W/m2
19:05 89.8 °F /  32.1 °C 68.7 °F /  20.4 °C 29.8in /  1009.5hPa ENE 2.9mph /  4.7km/h 3mph /  4.8km/h 50% 0in /  0.0mm 297 W/m2
19:10 89.6 °F /  32 °C 68.5 °F /  20.3 °C 29.8in /  1009.5hPa Calm   2mph /  3.2km/h 50% 0in /  0.0mm 278 W/m2
19:15 89.8 °F /  32.1 °C 69.3 °F /  20.7 °C 29.8in /  1009.5hPa SSE 2mph /  3.2km/h 7mph /  11.3km/h 51% 0in /  0.0mm 221 W/m2
19:20 89.4 °F /  31.9 °C 67.8 °F /  19.9 °C 29.8in /  1009.5hPa Calm   2mph /  3.2km/h 49% 0in /  0.0mm 269 W/m2
19:25 89.4 °F /  31.9 °C 68.9 °F /  20.5 °C 29.8in /  1009.5hPa Calm   7mph /  11.3km/h 51% 0in /  0.0mm 255 W/m2
19:30 89.6 °F /  32 °C 68.5 °F /  20.3 °C 29.8in /  1009.5hPa Calm   1mph /  1.6km/h 50% 0in /  0.0mm 243 W/m2
19:35 90 °F /  32.2 °C 69.4 °F /  20.8 °C 29.8in /  1009.5hPa Calm   1mph /  1.6km/h 51% 0in /  0.0mm 221 W/m2
19:40 90 °F /  32.2 °C 68.9 °F /  20.5 °C 29.8in /  1009.5hPa Calm     50% 0in /  0.0mm 172 W/m2
19:45 90 °F /  32.2 °C 69.4 °F /  20.8 °C 29.8in /  1009.5hPa Calm     51% 0in /  0.0mm 121 W/m2
19:50 89.4 °F /  31.9 °C 71.1 °F /  21.7 °C 29.8in /  1009.5hPa Calm   2mph /  3.2km/h 55% 0in /  0.0mm 76 W/m2
19:55 88.9 °F /  31.6 °C 71.1 °F /  21.7 °C 29.8in /  1009.5hPa WSW 0.9mph /  1.4km/h 2mph /  3.2km/h 56% 0in /  0.0mm 76 W/m2
20:00 88 °F /  31.1 °C 71.4 °F /  21.9 °C 29.8in /  1009.8hPa Calm   1mph /  1.6km/h 58% 0in /  0.0mm 69 W/m2
20:05 87.3 °F /  30.7 °C 71.2 °F /  21.8 °C 29.8in /  1009.8hPa WSW 0.9mph /  1.4km/h 1mph /  1.6km/h 59% 0in /  0.0mm 63 W/m2
20:10 86.7 °F /  30.4 °C 70.7 °F /  21.5 °C 29.8in /  1009.8hPa Calm   1mph /  1.6km/h 59% 0in /  0.0mm 60 W/m2
20:15 86.2 °F /  30.1 °C 70.2 °F /  21.2 °C 29.8in /  1009.8hPa WSW 0.9mph /  1.4km/h 2mph /  3.2km/h 59% 0in /  0.0mm 84 W/m2
20:20 85.6 °F /  29.8 °C 69.6 °F /  20.9 °C 29.8in /  1009.8hPa WSW 0.9mph /  1.4km/h 2mph /  3.2km/h 59% 0in /  0.0mm 74 W/m2
20:25 85.1 °F /  29.5 °C 69.6 °F /  20.9 °C 29.8in /  1009.8hPa Calm   2mph /  3.2km/h 60% 0in /  0.0mm 63 W/m2
20:30 84.6 °F /  29.2 °C 69.6 °F /  20.9 °C 29.8in /  1009.8hPa WSW 0.9mph /  1.4km/h 2mph /  3.2km/h 61% 0in /  0.0mm 58 W/m2
20:35 83.8 °F /  28.8 °C 68.9 °F /  20.5 °C 29.8in /  1009.8hPa WSW 0.9mph /  1.4km/h 2mph /  3.2km/h 61% 0in /  0.0mm 62 W/m2
20:40 83.5 °F /  28.6 °C 69.1 °F /  20.6 °C 29.8in /  1009.8hPa WSW 0.9mph /  1.4km/h 2mph /  3.2km/h 62% 0in /  0.0mm 60 W/m2
20:45 82.9 °F /  28.3 °C 68.5 °F /  20.3 °C 29.8in /  1009.8hPa WSW 0.9mph /  1.4km/h 1mph /  1.6km/h 62% 0in /  0.0mm 54 W/m2
20:50 82.6 °F /  28.1 °C 68.2 °F /  20.1 °C 29.8in /  1009.8hPa WSW 0.9mph /  1.4km/h 2mph /  3.2km/h 62% 0in /  0.0mm 49 W/m2
20:55 82.2 °F /  27.9 °C 67.8 °F /  19.9 °C 29.8in /  1009.8hPa WSW 2mph /  3.2km/h 2mph /  3.2km/h 62% 0in /  0.0mm 35 W/m2
21:00 82 °F /  27.8 °C 67.6 °F /  19.8 °C 29.8in /  1009.8hPa WSW 2mph /  3.2km/h 2mph /  3.2km/h 62% 0in /  0.0mm 28 W/m2
21:05 81.7 °F /  27.6 °C 67.5 °F /  19.7 °C 29.8in /  1009.8hPa WSW 2mph /  3.2km/h 2mph /  3.2km/h 62% 0in /  0.0mm 21 W/m2
21:10 81.3 °F /  27.4 °C 67.1 °F /  19.5 °C 29.8in /  1009.8hPa WSW 0.9mph /  1.4km/h 2mph /  3.2km/h 62% 0in /  0.0mm 18 W/m2
21:15 81 °F /  27.2 °C 66.7 °F /  19.3 °C 29.8in /  1009.8hPa Calm   2mph /  3.2km/h 62% 0in /  0.0mm 14 W/m2
21:20 80.6 °F /  27 °C 66.4 °F /  19.1 °C 29.8in /  1009.8hPa Calm     62% 0in /  0.0mm 12 W/m2
21:25 80.4 °F /  26.9 °C 66.7 °F /  19.3 °C 29.8in /  1009.8hPa Calm   1mph /  1.6km/h 63% 0in /  0.0mm 9 W/m2
21:30 80.1 °F /  26.7 °C 65.8 °F /  18.8 °C 29.8in /  1009.8hPa WSW 0.9mph /  1.4km/h 1mph /  1.6km/h 62% 0in /  0.0mm 7 W/m2
21:35 79.7 °F /  26.5 °C 66.4 °F /  19.1 °C 29.8in /  1009.8hPa Calm   1mph /  1.6km/h 64% 0in /  0.0mm 5 W/m2
21:41 79.3 °F /  26.3 °C 66 °F /  18.9 °C 29.8in /  1010.2hPa WSW 0.9mph /  1.4km/h 2mph /  3.2km/h 64% 0in /  0.0mm 0 W/m2
21:46 79 °F /  26.1 °C 66.2 °F /  19 °C 29.8in /  1010.2hPa Calm     65% 0in /  0.0mm 0 W/m2
21:51 78.6 °F /  25.9 °C 65.8 °F /  18.8 °C 29.8in /  1010.2hPa Calm   2mph /  3.2km/h 65% 0in /  0.0mm 0 W/m2
21:56 78.3 °F /  25.7 °C 65.5 °F /  18.6 °C 29.8in /  1010.2hPa Calm     65% 0in /  0.0mm 0 W/m2
22:01 78.1 °F /  25.6 °C 65.8 °F /  18.8 °C 29.8in /  1010.2hPa Calm     66% 0in /  0.0mm 0 W/m2
22:06 77.7 °F /  25.4 °C 65.8 °F /  18.8 °C 29.8in /  1010.2hPa Calm     67% 0in /  0.0mm 0 W/m2
22:11 77.4 °F /  25.2 °C 65.5 °F /  18.6 °C 29.8in /  1010.2hPa Calm     67% 0in /  0.0mm 0 W/m2
22:16 77.2 °F /  25.1 °C 65.3 °F /  18.5 °C 29.8in /  1010.2hPa Calm     67% 0in /  0.0mm 0 W/m2
22:21 76.8 °F /  24.9 °C 65.5 °F /  18.6 °C 29.8in /  1010.2hPa Calm     68% 0in /  0.0mm 0 W/m2
22:26 76.6 °F /  24.8 °C 65.3 °F /  18.5 °C 29.8in /  1010.2hPa Calm     68% 0in /  0.0mm 0 W/m2
22:31 76.3 °F /  24.6 °C 65.3 °F /  18.5 °C 29.8in /  1010.2hPa Calm     69% 0in /  0.0mm 0 W/m2
22:36 76.1 °F /  24.5 °C 65.1 °F /  18.4 °C 29.8in /  1010.5hPa Calm     69% 0in /  0.0mm 0 W/m2
22:41 75.9 °F /  24.4 °C 64.9 °F /  18.3 °C 29.8in /  1010.5hPa Calm     69% 0in /  0.0mm 0 W/m2
22:46 75.6 °F /  24.2 °C 65.1 °F /  18.4 °C 29.9in /  1010.8hPa Calm   1mph /  1.6km/h 70% 0in /  0.0mm 0 W/m2
22:51 75.4 °F /  24.1 °C 64.9 °F /  18.3 °C 29.9in /  1010.8hPa Calm     70% 0in /  0.0mm 0 W/m2
22:56 75.4 °F /  24.1 °C 65.3 °F /  18.5 °C 29.9in /  1010.8hPa Calm   1mph /  1.6km/h 71% 0in /  0.0mm 0 W/m2
23:01 75 °F /  23.9 °C 64.9 °F /  18.3 °C 29.9in /  1010.8hPa Calm     71% 0in /  0.0mm 0 W/m2
23:06 74.8 °F /  23.8 °C 64.8 °F /  18.2 °C 29.9in /  1010.8hPa Calm     71% 0in /  0.0mm 0 W/m2
23:11 74.7 °F /  23.7 °C 65.1 °F /  18.4 °C 29.9in /  1010.8hPa Calm     72% 0in /  0.0mm 0 W/m2
23:16 74.7 °F /  23.7 °C 65.5 °F /  18.6 °C 29.9in /  1010.8hPa Calm     73% 0in /  0.0mm 0 W/m2
23:21 74.5 °F /  23.6 °C 65.3 °F /  18.5 °C 29.9in /  1010.8hPa Calm     73% 0in /  0.0mm 0 W/m2
23:26 74.1 °F /  23.4 °C 64.9 °F /  18.3 °C 29.9in /  1010.8hPa Calm     73% 0in /  0.0mm 0 W/m2
23:31 74.1 °F /  23.4 °C 64.6 °F /  18.1 °C 29.9in /  1010.8hPa Calm     72% 0in /  0.0mm 0 W/m2
23:36 73.9 °F /  23.3 °C 64.4 °F /  18 °C 29.9in /  1010.8hPa Calm     72% 0in /  0.0mm 0 W/m2
23:41 73.8 °F /  23.2 °C 64.6 °F /  18.1 °C 29.9in /  1010.8hPa Calm     73% 0in /  0.0mm 0 W/m2
23:46 73.6 °F /  23.1 °C 64.8 °F /  18.2 °C 29.9in /  1010.8hPa Calm     74% 0in /  0.0mm 0 W/m2
23:51 73.4 °F /  23 °C 64.6 °F /  18.1 °C 29.9in /  1010.8hPa WSW 0.9mph /  1.4km/h 1mph /  1.6km/h 74% 0in /  0.0mm 0 W/m2
23:56 73.2 °F /  22.9 °C 64.4 °F /  18 °C 29.9in /  1010.8hPa Calm     74% 0in /  0.0mm 0 W/m2
Juneau County Weather
Compliments of Weather Underground - 4 mb